createdAt,value
2019-04-20T04:35:59.374Z,56.70
2019-04-20T04:38:31.771Z,56.60
2019-04-20T04:41:08.506Z,56.30
2019-04-20T04:43:27.045Z,56.40
2019-04-20T04:45:40.580Z,56.50
2019-04-20T04:48:14.754Z,56.20
2019-04-20T04:50:48.448Z,56.80
2019-04-20T04:53:23.842Z,56.60
2019-04-20T04:55:48.742Z,56.70
2019-04-20T04:58:10.653Z,56.40
2019-04-20T05:00:40.731Z,56.20
2019-04-20T05:03:27.012Z,56.30
2019-04-20T05:06:03.263Z,56.40
2019-04-20T05:08:22.268Z,56.70
2019-04-20T05:10:43.578Z,56.70
2019-04-20T05:13:13.277Z,56.90
2019-04-20T05:15:57.062Z,56.80
2019-04-20T05:18:41.546Z,56.70
2019-04-20T05:21:05.929Z,56.50
2019-04-20T05:23:30.636Z,56.60
2019-04-20T05:26:10.146Z,56.20
2019-04-20T05:28:33.388Z,56.30
2019-04-20T05:30:59.251Z,56.10
2019-04-20T05:33:40.481Z,56.10
2019-04-20T05:36:11.755Z,56.50
2019-04-20T05:38:50.431Z,56.40
2019-04-20T05:41:11.690Z,56.60
2019-04-20T05:43:56.523Z,56.30
2019-04-20T05:46:26.469Z,56.10
2019-04-20T05:48:56.192Z,55.70
2019-04-20T05:51:29.434Z,54.30
2019-04-20T05:53:58.324Z,53.70
2019-04-20T05:56:31.324Z,54.40
2019-04-20T05:58:59.629Z,53.10
2019-04-20T06:01:34.618Z,53.30
2019-04-20T06:03:57.893Z,51.50
2019-04-20T06:06:33.286Z,52.10
2019-04-20T06:09:05.807Z,52.60
2019-04-20T06:11:34.992Z,50.60
2019-04-20T06:13:50.665Z,49.20
2019-04-20T06:16:54.036Z,46.90
2019-04-20T06:19:28.322Z,46.00
2019-04-20T06:21:51.177Z,45.00
2019-04-20T06:24:36.424Z,45.50
2019-04-20T06:27:01.032Z,44.70
2019-04-20T06:29:23.582Z,43.20
2019-04-20T06:31:58.019Z,42.50
2019-04-20T06:34:33.378Z,42.30
2019-04-20T06:36:57.272Z,41.70
2019-04-20T06:47:10.356Z,41.60
2019-04-20T06:49:33.167Z,41.40
2019-04-20T06:52:15.404Z,41.70
2019-04-20T06:54:47.088Z,41.80
2019-04-20T06:57:15.066Z,41.70
2019-04-20T06:59:43.244Z,41.10
2019-04-20T07:04:54.485Z,40.70
2019-04-20T07:09:58.169Z,40.30
2019-04-20T07:12:13.072Z,39.90
2019-04-20T07:14:39.151Z,39.20
2019-04-20T07:17:31.614Z,38.70
2019-04-20T07:20:04.298Z,39.30
2019-04-20T07:22:38.925Z,38.80
2019-04-20T07:25:16.089Z,37.60
2019-04-20T07:27:40.516Z,38.00
2019-04-20T07:30:12.515Z,38.30
2019-04-20T07:32:50.597Z,37.30
2019-04-20T07:35:17.396Z,37.30
2019-04-20T07:40:34.489Z,37.20
2019-04-20T07:42:52.125Z,36.80
2019-04-20T07:45:24.517Z,36.00
2019-04-20T07:50:13.624Z,36.50
2019-04-20T07:52:42.265Z,35.70
2019-04-20T07:55:35.190Z,36.10
2019-04-20T07:57:42.884Z,36.40
2019-04-20T08:00:26.259Z,35.60
2019-04-20T08:03:20.403Z,35.00
2019-04-20T08:05:41.832Z,34.60
2019-04-20T08:08:17.171Z,33.90
2019-04-20T08:10:41.553Z,33.80
2019-04-20T08:13:27.471Z,32.90
2019-04-20T08:15:51.981Z,33.10
2019-04-20T08:18:19.446Z,33.00
2019-04-20T08:20:54.071Z,32.00
2019-04-20T08:23:17.498Z,31.50
2019-04-20T08:25:41.864Z,31.10
2019-04-20T08:28:06.484Z,29.90
2019-04-20T08:30:56.211Z,30.90
2019-04-20T08:33:28.859Z,30.60
2019-04-20T08:36:04.101Z,29.60
2019-04-20T08:40:59.579Z,29.90
2019-04-20T08:43:43.616Z,29.50
2019-04-20T08:45:58.808Z,28.40
2019-04-20T08:48:34.460Z,28.10
2019-04-20T08:50:59.616Z,27.30
2019-04-20T08:53:30.853Z,26.20
2019-04-20T08:55:54.280Z,25.60
2019-04-20T08:58:11.443Z,25.10
2019-04-20T09:00:48.429Z,24.90
2019-04-20T09:03:20.168Z,23.70
2019-04-20T09:05:52.562Z,24.10
2019-04-20T09:08:20.066Z,24.10
2019-04-20T09:11:00.001Z,24.10
2019-04-20T09:13:23.087Z,23.50
2019-04-20T09:15:43.135Z,22.80
2019-04-20T09:18:26.280Z,23.20
2019-04-20T09:20:58.214Z,22.90
2019-04-20T09:23:54.609Z,22.50
2019-04-20T09:26:25.083Z,21.80
2019-04-20T09:28:48.014Z,21.40
2019-04-20T09:31:33.164Z,20.90
2019-04-20T09:34:15.702Z,20.80
2019-04-20T09:36:45.852Z,21.10
2019-04-20T09:39:33.889Z,20.80
2019-04-20T09:42:14.502Z,21.30
2019-04-20T09:44:49.087Z,21.30
2019-04-20T09:47:14.185Z,20.80
2019-04-20T09:49:57.092Z,20.20
2019-04-20T09:52:28.024Z,19.50
2019-04-20T09:54:59.390Z,19.40
2019-04-20T09:57:36.294Z,19.90
2019-04-20T10:00:02.930Z,19.90
2019-04-20T10:02:18.794Z,19.60
2019-04-20T10:04:43.925Z,20.10
2019-04-20T10:07:17.587Z,20.60
2019-04-20T10:09:44.955Z,20.90
2019-04-20T10:12:13.520Z,20.70
2019-04-20T10:14:42.714Z,20.60
2019-04-20T10:17:11.889Z,20.20
2019-04-20T10:19:41.802Z,19.60
2019-04-20T10:22:10.895Z,19.90
2019-04-20T10:24:39.401Z,19.10
2019-04-20T10:27:08.387Z,19.30
2019-04-20T10:29:37.585Z,19.10
2019-04-20T10:32:07.945Z,18.70
2019-04-20T10:34:36.806Z,19.40
2019-04-20T10:37:05.917Z,19.70
2019-04-20T10:39:36.267Z,19.60
2019-04-20T10:42:06.041Z,19.50
2019-04-20T10:44:34.775Z,19.40
2019-04-20T10:47:03.256Z,19.30
2019-04-20T10:49:31.686Z,19.20
2019-04-20T10:52:00.130Z,19.20
2019-04-20T10:54:28.608Z,18.60
2019-04-20T10:56:57.391Z,18.80
2019-04-20T10:59:25.958Z,18.60
2019-04-20T11:01:54.398Z,19.00
2019-04-20T11:04:22.971Z,19.10
2019-04-20T11:06:52.435Z,19.00
2019-04-20T11:09:20.891Z,19.00
2019-04-20T11:11:50.297Z,19.10
2019-04-20T11:14:26.601Z,19.60
2019-04-20T11:16:48.979Z,19.50
2019-04-20T11:19:17.417Z,19.50
2019-04-20T11:21:46.367Z,19.90
2019-04-20T11:24:16.267Z,20.40
2019-04-20T11:26:46.477Z,21.40
2019-04-20T11:29:16.077Z,21.80
2019-04-20T11:31:49.213Z,22.30
2019-04-20T11:34:21.941Z,23.40
2019-04-20T11:36:45.479Z,21.40
2019-04-20T11:39:14.777Z,21.40
2019-04-20T11:41:43.621Z,21.20
2019-04-20T11:44:12.155Z,22.30
2019-04-20T11:46:40.769Z,22.20
2019-04-20T11:49:09.796Z,21.30
2019-04-20T11:51:39.444Z,21.70
2019-04-20T11:54:08.302Z,22.20
2019-04-20T11:56:40.774Z,21.40
2019-04-20T11:59:07.303Z,21.90
2019-04-20T12:01:59.052Z,21.90
2019-04-20T12:04:36.001Z,22.10
2019-04-20T12:06:56.982Z,21.50
2019-04-20T12:09:26.287Z,21.90
2019-04-20T12:12:06.957Z,22.60
2019-04-20T12:14:25.014Z,22.10
2019-04-20T12:16:53.502Z,20.80
2019-04-20T12:19:22.922Z,21.30
2019-04-20T12:21:51.686Z,22.10
2019-04-20T12:24:20.459Z,22.00
2019-04-20T12:26:48.996Z,22.20
2019-04-20T12:29:17.451Z,23.20
2019-04-20T12:31:51.117Z,22.40
2019-04-20T12:34:16.222Z,22.90
2019-04-20T12:36:44.911Z,22.40
2019-04-20T12:39:13.398Z,23.00
2019-04-20T12:41:50.066Z,22.50
2019-04-20T12:44:12.234Z,22.10
2019-04-20T12:46:41.502Z,21.60
2019-04-20T12:49:10.057Z,21.20
2019-04-20T12:51:47.787Z,21.30
2019-04-20T12:54:10.864Z,20.70
2019-04-20T12:56:40.489Z,21.60
2019-04-20T12:59:09.617Z,20.90
2019-04-20T13:01:39.333Z,20.40
2019-04-20T13:04:09.352Z,20.20
2019-04-20T13:06:39.194Z,20.60
2019-04-20T13:09:10.876Z,20.70
2019-04-20T13:11:56.812Z,20.40
2019-04-20T13:14:52.667Z,21.00
2019-04-20T13:17:22.143Z,20.50
2019-04-20T13:19:51.234Z,20.80
2019-04-20T13:22:21.014Z,21.40
2019-04-20T13:24:49.619Z,21.60
2019-04-20T13:27:18.689Z,21.20
2019-04-20T13:29:50.470Z,20.70
2019-04-20T13:32:18.121Z,19.60
2019-04-20T13:34:46.648Z,20.10
2019-04-20T13:37:15.988Z,20.50
2019-04-20T13:39:44.783Z,19.30
2019-04-20T13:42:20.251Z,19.00
2019-04-20T13:44:43.488Z,19.40
2019-04-20T13:47:12.773Z,19.80
2019-04-20T13:49:41.319Z,20.40
2019-04-20T13:52:10.799Z,20.60
2019-04-20T13:54:40.070Z,20.30
2019-04-20T13:57:11.154Z,21.30
2019-04-20T13:59:41.946Z,21.60
2019-04-20T14:02:12.974Z,22.10
2019-04-20T14:04:46.525Z,21.60
2019-04-20T14:07:15.950Z,21.60
2019-04-20T14:09:45.691Z,21.50
2019-04-20T14:12:23.273Z,20.80
2019-04-20T14:14:44.454Z,20.40
2019-04-20T14:17:13.037Z,19.80
2019-04-20T14:19:41.595Z,19.90
2019-04-20T14:22:10.353Z,20.80
2019-04-20T14:24:39.087Z,21.60
2019-04-20T14:27:08.861Z,21.50
2019-04-20T14:29:39.017Z,21.50
2019-04-20T14:32:08.889Z,21.90
2019-04-20T14:34:38.608Z,21.10
2019-04-20T14:37:07.179Z,21.60
2019-04-20T14:39:36.348Z,21.30
2019-04-20T14:42:04.918Z,21.30
2019-04-20T14:44:33.999Z,21.30
2019-04-20T14:47:03.646Z,19.50
2019-04-20T14:49:32.658Z,19.80
2019-04-20T14:52:02.741Z,19.50
2019-04-20T14:54:31.841Z,20.00
2019-04-20T14:57:01.377Z,20.60
2019-04-20T14:59:35.762Z,20.40
2019-04-20T15:02:10.426Z,19.70
2019-04-20T15:04:39.116Z,19.60
2019-04-20T15:07:08.724Z,19.70
2019-04-20T15:09:38.951Z,20.10
2019-04-20T15:12:08.821Z,19.40
2019-04-20T15:14:38.707Z,19.00
2019-04-20T15:17:08.981Z,18.60
2019-04-20T15:19:45.497Z,18.60
2019-04-20T15:22:31.678Z,18.40
2019-04-20T15:25:00.325Z,18.80
2019-04-20T15:27:30.221Z,18.80
2019-04-20T15:30:00.171Z,19.10
2019-04-20T15:32:29.150Z,18.70
2019-04-20T15:34:57.677Z,18.60
2019-04-20T15:37:26.640Z,19.50
2019-04-20T15:39:55.180Z,18.70
2019-04-20T15:42:23.606Z,18.60
2019-04-20T15:44:53.445Z,18.50
2019-04-20T15:47:22.387Z,18.80
2019-04-20T15:49:51.706Z,19.10
2019-04-20T15:52:26.230Z,19.10
2019-04-20T15:54:51.729Z,18.60
2019-04-20T15:57:23.733Z,18.60
2019-04-20T15:59:50.669Z,18.90
2019-04-20T16:02:27.341Z,19.80
2019-04-20T16:05:06.332Z,19.70
2019-04-20T16:07:39.203Z,19.80
2019-04-20T16:10:07.435Z,19.90
2019-04-20T16:12:35.989Z,20.40
2019-04-20T16:15:07.478Z,19.90
2019-04-20T16:17:39.019Z,20.20
2019-04-20T16:20:12.614Z,20.60
2019-04-20T16:22:36.800Z,20.20
2019-04-20T16:25:17.283Z,20.70
2019-04-20T16:27:45.782Z,20.80
2019-04-20T16:30:15.710Z,20.40
2019-04-20T16:32:44.872Z,20.60
2019-04-20T16:35:14.147Z,20.70
2019-04-20T16:37:42.681Z,21.70
2019-04-20T16:40:11.643Z,21.00
2019-04-20T16:42:42.116Z,21.20
2019-04-20T16:45:11.627Z,21.60
2019-04-20T16:47:40.218Z,22.00
2019-04-20T16:50:08.890Z,22.20
2019-04-20T16:52:37.400Z,22.50
2019-04-20T16:55:06.586Z,22.60
2019-04-20T16:57:35.311Z,22.80
2019-04-20T17:00:05.555Z,23.00
2019-04-20T17:02:34.548Z,23.00
2019-04-20T17:05:03.142Z,22.90
2019-04-20T17:07:33.270Z,22.90
2019-04-20T17:10:02.304Z,23.10
2019-04-20T17:12:30.876Z,22.70
2019-04-20T17:14:59.300Z,22.90
2019-04-20T17:17:27.757Z,23.00
2019-04-20T17:19:57.559Z,22.90
2019-04-20T17:22:27.484Z,22.80
2019-04-20T17:24:56.075Z,23.10
2019-04-20T17:27:42.152Z,22.90
2019-04-20T17:30:13.304Z,23.00
2019-04-20T17:32:43.465Z,23.30
2019-04-20T17:35:20.849Z,23.50
2019-04-20T17:37:45.118Z,23.30
2019-04-20T17:40:36.813Z,23.20
2019-04-20T17:42:53.131Z,23.30
2019-04-20T17:45:27.356Z,23.60
2019-04-20T17:48:01.882Z,23.70
2019-04-20T17:50:34.395Z,23.90
2019-04-20T17:53:03.060Z,23.90
2019-04-20T17:55:30.552Z,24.30
2019-04-20T17:57:53.233Z,24.20
2019-04-20T18:00:38.633Z,24.40
2019-04-20T18:03:24.604Z,24.30
2019-04-20T18:06:14.532Z,24.90
2019-04-20T18:08:45.539Z,25.10
2019-04-20T18:11:01.874Z,26.00
2019-04-20T18:13:26.019Z,26.60
2019-04-20T18:16:21.090Z,27.10
2019-04-20T18:18:41.355Z,27.10
2019-04-20T18:21:01.053Z,27.60
2019-04-20T18:23:36.536Z,28.20
2019-04-20T18:26:23.715Z,28.20
2019-04-20T18:28:51.593Z,28.80
2019-04-20T18:31:17.553Z,29.20
2019-04-20T18:33:46.597Z,29.60
2019-04-20T18:36:23.669Z,29.20
2019-04-20T18:38:54.033Z,29.50
2019-04-20T18:41:20.934Z,29.10
2019-04-20T18:43:51.710Z,29.90
2019-04-20T18:46:31.991Z,30.10
2019-04-20T18:49:06.975Z,30.50
2019-04-20T18:51:17.529Z,30.50
2019-04-20T18:53:48.003Z,31.10
2019-04-20T18:56:23.845Z,31.40
2019-04-20T18:58:47.016Z,31.80
2019-04-20T19:01:16.959Z,32.20
2019-04-20T19:03:47.341Z,31.20
2019-04-20T19:06:16.124Z,31.80
2019-04-20T19:08:49.961Z,31.70
2019-04-20T19:11:19.851Z,31.70
2019-04-20T19:13:51.203Z,31.60
2019-04-20T19:16:30.391Z,31.60
2019-04-20T19:19:06.332Z,31.80
2019-04-20T19:21:27.171Z,32.30
2019-04-20T19:24:03.797Z,31.60
2019-04-20T19:26:27.280Z,32.90
2019-04-20T19:29:03.430Z,32.50
2019-04-20T19:31:42.615Z,32.70
2019-04-20T19:34:16.961Z,32.40
2019-04-20T19:36:34.236Z,32.60
2019-04-20T19:39:19.679Z,33.00
2019-04-20T19:41:44.417Z,32.10
2019-04-20T19:44:18.975Z,32.20
2019-04-20T19:47:00.916Z,33.10
2019-04-20T19:49:23.014Z,32.50
2019-04-20T19:52:13.251Z,32.80
2019-04-20T19:54:35.505Z,33.70
2019-04-20T19:57:04.992Z,33.40
2019-04-20T19:59:35.667Z,33.60
2019-04-20T20:02:00.174Z,34.20
2019-04-20T20:04:33.047Z,34.00
2019-04-20T20:07:03.554Z,34.70
2019-04-20T20:09:32.309Z,34.10
2019-04-20T20:12:06.083Z,34.30
2019-04-20T20:14:36.798Z,34.20
2019-04-20T20:17:25.125Z,33.50
2019-04-20T20:19:54.550Z,33.60
2019-04-20T20:22:12.862Z,33.80
2019-04-20T20:24:33.264Z,34.10
2019-04-20T20:27:06.137Z,33.80
2019-04-20T20:29:38.664Z,33.30
2019-04-20T20:32:15.488Z,33.20
2019-04-20T20:34:40.583Z,33.30
2019-04-20T20:37:08.992Z,33.40
2019-04-20T20:39:37.141Z,33.90
2019-04-20T20:42:20.217Z,33.80
2019-04-20T20:44:50.567Z,32.90
2019-04-20T20:47:36.826Z,33.30
2019-04-20T20:50:07.993Z,33.10
2019-04-20T20:52:29.106Z,33.40
2019-04-20T20:54:55.045Z,34.00
2019-04-20T20:57:18.462Z,33.40
2019-04-20T20:59:53.437Z,34.60
2019-04-20T21:02:20.573Z,34.90
2019-04-20T21:04:43.745Z,34.50
2019-04-20T21:07:12.908Z,35.00
2019-04-20T21:09:41.881Z,34.70
2019-04-20T21:12:15.794Z,34.20
2019-04-20T21:14:43.528Z,34.70
2019-04-20T21:17:17.799Z,33.60
2019-04-20T21:19:58.023Z,34.50
2019-04-20T21:22:19.146Z,33.80
2019-04-20T21:24:48.453Z,34.20
2019-04-20T21:27:18.774Z,33.80
2019-04-20T21:29:51.362Z,33.80
2019-04-20T21:32:19.753Z,34.40
2019-04-20T21:34:51.855Z,33.90
2019-04-20T21:37:22.384Z,34.20
2019-04-20T21:39:55.412Z,36.10
2019-04-20T21:42:21.280Z,35.60
2019-04-20T21:44:50.479Z,36.00
2019-04-20T21:47:23.785Z,35.90
2019-04-20T21:49:57.513Z,36.90
2019-04-20T21:52:24.795Z,37.80
2019-04-20T21:54:48.076Z,38.20
2019-04-20T21:57:18.008Z,38.30
2019-04-20T21:59:50.454Z,38.40
2019-04-20T22:02:24.083Z,38.50
2019-04-20T22:04:47.278Z,39.40
2019-04-20T22:07:16.478Z,39.70
2019-04-20T22:09:48.973Z,39.70
2019-04-20T22:12:16.002Z,38.80
2019-04-20T22:14:49.640Z,39.60
2019-04-20T22:17:21.181Z,38.40
2019-04-20T22:19:58.533Z,38.80
2019-04-20T22:22:30.839Z,39.10
2019-04-20T22:25:01.398Z,38.70
2019-04-20T22:27:21.158Z,37.80
2019-04-20T22:29:46.182Z,39.00
2019-04-20T22:32:17.295Z,36.40
2019-04-20T22:34:47.625Z,38.70
2019-04-20T22:37:21.234Z,39.10
2019-04-20T22:39:54.125Z,39.20
2019-04-20T22:42:20.434Z,38.90
2019-04-20T22:44:56.593Z,40.50
2019-04-20T22:47:25.404Z,36.10
2019-04-20T22:50:07.839Z,36.10
2019-04-20T22:52:34.787Z,35.60
2019-04-20T22:55:12.048Z,36.00
2019-04-20T22:57:36.264Z,37.10
2019-04-20T23:00:00.572Z,38.20
2019-04-20T23:02:23.082Z,39.80
2019-04-20T23:04:52.959Z,36.10
2019-04-20T23:07:22.902Z,35.10
2019-04-20T23:09:54.962Z,34.50
2019-04-20T23:12:24.881Z,35.00
2019-04-20T23:14:52.335Z,34.80
2019-04-20T23:17:28.285Z,34.80
2019-04-20T23:19:56.193Z,35.80
2019-04-20T23:22:21.289Z,35.00
2019-04-20T23:24:51.042Z,35.70
2019-04-20T23:27:24.482Z,34.60
2019-04-20T23:29:51.039Z,33.40
